createdAt,value
2017-05-22T00:01:50.688Z,5.80
2017-05-22T00:04:19.010Z,4.98
2017-05-22T00:06:47.293Z,7.08
2017-05-22T00:09:15.608Z,6.98
2017-05-22T00:11:43.905Z,4.42
2017-05-22T00:14:12.239Z,5.20
2017-05-22T00:16:40.572Z,8.28
2017-05-22T00:19:08.871Z,7.52
2017-05-22T00:21:37.395Z,5.06
2017-05-22T00:24:05.723Z,7.22
2017-05-22T00:26:34.016Z,5.00
2017-05-22T00:29:02.299Z,5.56
2017-05-22T00:31:30.623Z,7.06
2017-05-22T00:33:58.950Z,5.42
2017-05-22T00:36:27.231Z,5.50
2017-05-22T00:38:55.512Z,5.20
2017-05-22T00:41:23.842Z,5.30
2017-05-22T00:43:52.127Z,6.58
2017-05-22T00:46:20.460Z,6.10
2017-05-22T00:48:48.738Z,6.18
2017-05-22T00:51:17.048Z,6.14
2017-05-22T00:53:45.387Z,6.46
2017-05-22T00:56:13.686Z,5.52
2017-05-22T00:58:41.973Z,4.96
2017-05-22T01:01:10.540Z,6.80
2017-05-22T01:03:39.140Z,5.22
2017-05-22T01:06:07.434Z,4.82
2017-05-22T01:08:35.756Z,6.48
2017-05-22T01:11:04.036Z,5.96
2017-05-22T01:13:32.364Z,5.94
2017-05-22T01:16:00.651Z,7.56
2017-05-22T01:18:28.939Z,6.88
2017-05-22T01:20:57.267Z,6.64
2017-05-22T01:23:25.547Z,7.76
2017-05-22T01:25:53.840Z,6.00
2017-05-22T01:28:22.151Z,7.88
2017-05-22T01:30:50.447Z,7.28
2017-05-22T01:33:18.759Z,6.80
2017-05-22T01:35:47.091Z,7.06
2017-05-22T01:38:15.374Z,7.96
2017-05-22T01:40:43.668Z,8.44
2017-05-22T01:43:11.982Z,6.80
2017-05-22T01:45:40.276Z,7.90
2017-05-22T01:48:08.595Z,7.90
2017-05-22T01:50:36.892Z,8.34
2017-05-22T01:53:05.185Z,11.40
2017-05-22T01:55:33.511Z,7.52
2017-05-22T01:58:01.803Z,8.00
2017-05-22T02:00:30.090Z,6.94
2017-05-22T02:02:58.414Z,6.78
2017-05-22T02:05:26.700Z,9.24
2017-05-22T02:07:54.997Z,9.56
2017-05-22T02:10:23.323Z,8.52
2017-05-22T02:12:51.620Z,12.26
2017-05-22T02:15:19.906Z,8.98
2017-05-22T02:17:48.246Z,9.10
2017-05-22T02:20:16.539Z,9.90
2017-05-22T02:22:44.826Z,14.22
2017-05-22T02:25:13.494Z,9.26
2017-05-22T02:27:41.787Z,10.16
2017-05-22T02:30:10.078Z,9.24
2017-05-22T02:32:38.416Z,14.38
2017-05-22T02:35:06.713Z,17.50
2017-05-22T02:37:35.014Z,10.16
2017-05-22T02:40:03.349Z,12.28
2017-05-22T02:42:31.644Z,11.30
2017-05-22T02:44:59.948Z,12.48
2017-05-22T02:47:28.281Z,10.12
2017-05-22T02:49:56.566Z,9.76
2017-05-22T02:52:24.911Z,9.76
2017-05-22T02:54:53.256Z,13.04
2017-05-22T02:57:21.806Z,10.46
2017-05-22T02:59:50.109Z,10.52
2017-05-22T03:02:18.438Z,9.98
2017-05-22T03:04:46.778Z,12.36
2017-05-22T03:07:15.077Z,11.92
2017-05-22T03:09:43.374Z,12.24
2017-05-22T03:12:12.070Z,13.00
2017-05-22T03:14:40.358Z,13.46
2017-05-22T03:17:08.948Z,10.02
2017-05-22T03:19:37.294Z,9.64
2017-05-22T03:22:05.591Z,11.60
2017-05-22T03:24:33.905Z,11.70
2017-05-22T03:27:02.219Z,15.70
2017-05-22T03:29:30.507Z,15.52
2017-05-22T03:31:58.834Z,11.98
2017-05-22T03:34:27.139Z,13.44
2017-05-22T03:36:55.428Z,23.76
2017-05-22T03:39:23.767Z,12.58
2017-05-22T03:41:52.064Z,14.78
2017-05-22T03:44:20.350Z,13.82
2017-05-22T03:46:48.692Z,17.18
2017-05-22T03:49:16.996Z,10.82
2017-05-22T03:51:45.282Z,12.54
2017-05-22T03:54:13.618Z,22.12
2017-05-22T03:56:41.926Z,15.04
2017-05-22T03:59:10.220Z,12.26
2017-05-22T04:01:38.565Z,15.58
2017-05-22T04:04:06.869Z,12.54
2017-05-22T04:06:35.160Z,11.84
2017-05-22T04:09:03.501Z,14.26
2017-05-22T04:11:31.793Z,13.12
2017-05-22T04:14:00.099Z,12.72
2017-05-22T04:16:28.715Z,12.38
2017-05-22T04:18:57.016Z,11.82
2017-05-22T04:21:25.314Z,13.62
2017-05-22T04:23:53.957Z,10.86
2017-05-22T04:26:22.538Z,12.72
2017-05-22T04:28:50.066Z,17.10
2017-05-22T04:31:18.684Z,16.10
2017-05-22T04:33:47.374Z,21.64
2017-05-22T04:36:15.670Z,16.60
2017-05-22T04:38:43.959Z,12.40
2017-05-22T04:41:12.314Z,20.18
2017-05-22T04:43:40.617Z,12.92
2017-05-22T04:46:08.921Z,13.94
2017-05-22T04:48:37.270Z,11.58
2017-05-22T04:51:05.580Z,11.00
2017-05-22T04:53:33.875Z,13.28
2017-05-22T04:56:02.208Z,10.98
2017-05-22T04:58:30.545Z,17.52
2017-05-22T05:00:58.844Z,17.32
2017-05-22T05:03:27.133Z,10.22
2017-05-22T05:05:55.469Z,13.72
2017-05-22T05:08:23.811Z,14.60
2017-05-22T05:10:52.112Z,16.38
2017-05-22T05:13:20.407Z,20.72
2017-05-22T05:15:48.761Z,13.68
2017-05-22T05:18:17.061Z,18.78
2017-05-22T05:20:45.408Z,15.28
2017-05-22T05:23:13.691Z,16.92
2017-05-22T05:25:41.989Z,21.96
2017-05-22T05:28:10.329Z,20.60
2017-05-22T05:30:38.628Z,14.86
2017-05-22T05:33:06.911Z,16.32
2017-05-22T05:35:35.245Z,18.04
2017-05-22T05:38:03.535Z,19.94
2017-05-22T05:40:31.879Z,20.96
2017-05-22T05:43:00.220Z,19.50
2017-05-22T05:45:30.000Z,12.86
2017-05-22T05:47:58.328Z,17.98
2017-05-22T05:50:26.635Z,11.72
2017-05-22T05:52:56.934Z,15.22
2017-05-22T05:55:25.243Z,15.70
2017-05-22T05:57:53.544Z,13.32
2017-05-22T06:00:21.886Z,21.46
2017-05-22T06:02:50.180Z,13.02
2017-05-22T06:05:18.487Z,11.74
2017-05-22T06:07:46.822Z,10.16
2017-05-22T06:10:15.370Z,12.02
2017-05-22T06:12:43.691Z,11.62
2017-05-22T06:15:12.133Z,9.92
2017-05-22T06:17:40.420Z,9.96
2017-05-22T06:20:08.750Z,12.52
2017-05-22T06:22:37.070Z,8.92
2017-05-22T06:25:05.423Z,9.38
2017-05-22T06:27:33.728Z,9.28
2017-05-22T06:30:02.074Z,10.52
2017-05-22T06:32:30.377Z,12.62
2017-05-22T06:34:58.675Z,16.04
2017-05-22T06:37:27.022Z,12.88
2017-05-22T06:39:55.948Z,7.46
2017-05-22T06:42:24.243Z,9.62
2017-05-22T06:44:52.572Z,6.06
2017-05-22T06:47:20.859Z,19.10
2017-05-22T06:49:49.152Z,8.80
2017-05-22T06:52:17.491Z,9.68
2017-05-22T06:54:45.787Z,11.96
2017-05-22T06:57:14.105Z,9.54
2017-05-22T06:59:42.433Z,7.56
2017-05-22T07:02:11.044Z,9.00
2017-05-22T07:04:39.402Z,33.46
2017-05-22T07:07:08.057Z,10.94
2017-05-22T07:09:37.570Z,9.70
2017-05-22T07:12:06.821Z,10.36
2017-05-22T07:14:35.973Z,9.28
2017-05-22T07:17:05.262Z,6.42
2017-05-22T07:19:34.510Z,8.30
2017-05-22T07:22:04.139Z,9.44
2017-05-22T07:24:33.418Z,7.60
2017-05-22T07:27:02.564Z,7.32
2017-05-22T07:29:31.799Z,9.16
2017-05-22T07:32:01.043Z,7.00
2017-05-22T07:34:30.175Z,8.58
2017-05-22T07:36:59.470Z,9.78
2017-05-22T07:39:28.626Z,7.50
2017-05-22T07:41:57.874Z,7.30
2017-05-22T07:44:27.002Z,7.52
2017-05-22T07:46:56.247Z,8.14
2017-05-22T07:49:25.490Z,10.34
2017-05-22T07:51:54.642Z,7.28
2017-05-22T07:54:24.382Z,7.48
2017-05-22T07:56:53.957Z,9.82
2017-05-22T07:59:23.238Z,9.38
2017-05-22T08:01:52.341Z,8.34
2017-05-22T08:04:21.624Z,8.86
2017-05-22T08:06:50.788Z,6.72
2017-05-22T08:09:20.129Z,7.12
2017-05-22T08:11:51.168Z,5.78
2017-05-22T08:14:20.299Z,6.28
2017-05-22T08:16:49.560Z,7.96
2017-05-22T08:19:19.136Z,7.00
2017-05-22T08:21:48.320Z,6.98
2017-05-22T08:24:16.761Z,11.42
2017-05-22T08:26:45.057Z,9.10
2017-05-22T08:29:18.352Z,7.80
2017-05-22T08:31:49.573Z,10.42
2017-05-22T08:34:18.745Z,7.64
2017-05-22T08:36:49.617Z,7.44
2017-05-22T08:39:18.077Z,7.66
2017-05-22T08:41:46.385Z,6.22
2017-05-22T08:44:14.681Z,6.08
2017-05-22T08:46:43.064Z,8.56
2017-05-22T08:49:11.374Z,7.36
2017-05-22T08:51:39.663Z,6.86
2017-05-22T08:54:07.986Z,7.44
2017-05-22T08:56:36.270Z,8.28
2017-05-22T08:59:04.578Z,6.66
2017-05-22T09:01:32.912Z,7.86
2017-05-22T09:04:01.195Z,6.20
2017-05-22T09:06:29.492Z,11.12
2017-05-22T09:08:57.823Z,7.88
2017-05-22T09:11:26.139Z,7.06
2017-05-22T09:13:54.421Z,6.92
2017-05-22T09:16:22.768Z,6.30
2017-05-22T09:18:51.292Z,6.50
2017-05-22T09:21:19.586Z,8.78
2017-05-22T09:23:47.911Z,6.00
2017-05-22T09:26:15.431Z,5.48
2017-05-22T09:28:43.710Z,5.32
2017-05-22T09:31:12.054Z,6.10
2017-05-22T09:33:40.354Z,10.20
2017-05-22T09:36:08.644Z,6.64
2017-05-22T09:38:36.983Z,6.74
2017-05-22T09:41:05.615Z,6.02
2017-05-22T09:43:33.904Z,8.34
2017-05-22T09:46:02.442Z,6.40
2017-05-22T09:48:30.737Z,4.62
2017-05-22T09:50:59.044Z,8.92
2017-05-22T09:53:27.372Z,4.86
2017-05-22T09:55:55.666Z,5.14
2017-05-22T09:58:24.018Z,4.18
2017-05-22T10:00:52.347Z,5.06
2017-05-22T10:03:20.641Z,6.54
2017-05-22T10:05:48.932Z,5.30
2017-05-22T10:08:17.279Z,6.34
2017-05-22T10:10:45.575Z,4.22
2017-05-22T10:13:13.869Z,5.02
2017-05-22T10:15:42.234Z,4.32
2017-05-22T10:18:10.534Z,4.72
2017-05-22T10:20:38.814Z,8.68
2017-05-22T10:23:07.173Z,5.28
2017-05-22T10:25:35.689Z,6.20
2017-05-22T10:28:03.971Z,4.48
2017-05-22T10:30:32.324Z,3.68
2017-05-22T10:33:00.613Z,4.00
2017-05-22T10:35:28.904Z,3.76
2017-05-22T10:37:57.247Z,3.48
2017-05-22T10:40:25.795Z,3.46
2017-05-22T10:42:54.078Z,3.94
2017-05-22T10:45:22.428Z,4.58
2017-05-22T10:47:50.953Z,5.16
2017-05-22T10:50:19.249Z,4.90
2017-05-22T10:52:47.587Z,5.58
2017-05-22T10:55:15.886Z,3.94
2017-05-22T10:57:44.450Z,8.34
2017-05-22T11:00:12.776Z,3.90
2017-05-22T11:02:41.052Z,6.60
2017-05-22T11:05:09.343Z,5.08
2017-05-22T11:07:37.676Z,5.18
2017-05-22T11:10:05.971Z,7.92
2017-05-22T11:12:34.274Z,3.84
2017-05-22T11:15:02.598Z,4.52
2017-05-22T11:17:30.887Z,4.70
2017-05-22T11:19:59.176Z,5.10
2017-05-22T11:22:27.507Z,4.20
2017-05-22T11:24:55.792Z,8.46
2017-05-22T11:27:24.108Z,5.28
2017-05-22T11:29:52.450Z,6.20
2017-05-22T11:32:20.739Z,6.12
2017-05-22T11:34:49.033Z,5.02
2017-05-22T11:37:17.364Z,5.52
2017-05-22T11:39:45.651Z,5.32
2017-05-22T11:42:13.942Z,6.14
2017-05-22T11:44:42.280Z,5.50
2017-05-22T11:47:10.907Z,5.18
2017-05-22T11:49:39.196Z,4.10
2017-05-22T11:52:07.531Z,7.10
2017-05-22T11:54:35.812Z,5.68
2017-05-22T11:57:04.095Z,4.88
2017-05-22T11:59:32.433Z,5.02
2017-05-22T12:02:00.728Z,4.32
2017-05-22T12:04:29.014Z,9.70
2017-05-22T12:06:57.349Z,4.68
2017-05-22T12:09:25.646Z,3.56
2017-05-22T12:11:53.943Z,4.32
2017-05-22T12:14:22.284Z,3.24
2017-05-22T12:16:50.562Z,3.66
2017-05-22T12:19:18.848Z,4.10
2017-05-22T12:21:47.179Z,3.92
2017-05-22T12:24:15.468Z,6.12
2017-05-22T12:26:43.776Z,5.08
2017-05-22T12:29:12.332Z,4.78
2017-05-22T12:31:40.620Z,4.20
2017-05-22T12:34:08.911Z,3.86
2017-05-22T12:36:37.570Z,8.00
2017-05-22T12:39:05.867Z,3.52
2017-05-22T12:41:34.149Z,4.48
2017-05-22T12:44:02.473Z,3.62
2017-05-22T12:46:30.000Z,6.12
2017-05-22T12:48:58.298Z,4.80
2017-05-22T12:51:26.631Z,5.02
2017-05-22T12:53:55.202Z,6.62
2017-05-22T12:56:23.499Z,6.00
2017-05-22T12:58:51.850Z,3.44
2017-05-22T13:01:20.144Z,5.74
2017-05-22T13:03:48.452Z,4.20
2017-05-22T13:06:16.790Z,4.94
2017-05-22T13:08:45.084Z,7.98
2017-05-22T13:11:13.386Z,6.54
2017-05-22T13:13:41.742Z,5.72
2017-05-22T13:16:10.044Z,5.86
2017-05-22T13:18:38.336Z,8.34
2017-05-22T13:21:06.676Z,5.42
2017-05-22T13:23:36.289Z,4.84
2017-05-22T13:26:04.850Z,8.10
2017-05-22T13:28:33.140Z,9.64
2017-05-22T13:31:01.467Z,3.68
2017-05-22T13:33:29.786Z,7.20
2017-05-22T13:35:58.364Z,9.52
2017-05-22T13:38:26.646Z,4.14
2017-05-22T13:40:55.223Z,4.82
2017-05-22T13:43:23.511Z,3.86
2017-05-22T13:45:51.814Z,4.10
2017-05-22T13:48:20.152Z,4.44
2017-05-22T13:50:48.446Z,4.88
2017-05-22T13:53:16.727Z,2.90
2017-05-22T13:55:45.060Z,3.56
2017-05-22T13:58:13.517Z,3.74
2017-05-22T14:00:41.814Z,3.14
2017-05-22T14:03:10.165Z,2.30
2017-05-22T14:05:37.692Z,3.98
2017-05-22T14:08:05.985Z,3.32
2017-05-22T14:10:34.319Z,4.40
2017-05-22T14:13:02.632Z,3.28
2017-05-22T14:15:30.926Z,2.66
2017-05-22T14:17:59.291Z,3.42
2017-05-22T14:20:27.577Z,2.14
2017-05-22T14:22:55.869Z,5.10
2017-05-22T14:25:24.207Z,2.90
2017-05-22T14:27:55.856Z,2.58
2017-05-22T14:30:24.458Z,3.34
2017-05-22T14:32:52.760Z,3.30
2017-05-22T14:35:21.043Z,3.52
2017-05-22T14:37:49.368Z,5.16
2017-05-22T14:40:17.664Z,4.62
2017-05-22T14:42:45.953Z,6.28
2017-05-22T14:45:14.280Z,2.10
2017-05-22T14:47:42.570Z,5.82
2017-05-22T14:50:11.176Z,3.04
2017-05-22T14:52:39.760Z,4.20
2017-05-22T14:55:08.083Z,8.08
2017-05-22T14:57:36.403Z,4.40
2017-05-22T15:00:04.755Z,3.48
2017-05-22T15:02:33.050Z,3.32
2017-05-22T15:05:01.335Z,3.18
2017-05-22T15:07:29.665Z,2.68
2017-05-22T15:09:57.948Z,2.56
2017-05-22T15:12:26.243Z,3.28
2017-05-22T15:14:54.572Z,2.54
2017-05-22T15:17:22.878Z,4.92
2017-05-22T15:19:51.202Z,3.86
2017-05-22T15:22:19.798Z,3.52
2017-05-22T15:24:48.089Z,3.94
2017-05-22T15:27:16.428Z,8.68
2017-05-22T15:29:44.715Z,4.84
2017-05-22T15:32:13.010Z,3.36
2017-05-22T15:34:41.337Z,9.20
2017-05-22T15:37:09.640Z,3.10
2017-05-22T15:39:37.927Z,3.28
2017-05-22T15:42:06.256Z,4.28
2017-05-22T15:44:34.549Z,3.68
2017-05-22T15:47:03.180Z,8.00
2017-05-22T15:49:30.759Z,2.52
2017-05-22T15:51:59.050Z,2.00
2017-05-22T15:54:27.918Z,4.12
2017-05-22T15:56:56.227Z,2.08
2017-05-22T15:59:24.573Z,1.94
2017-05-22T16:01:52.850Z,5.68
2017-05-22T16:04:21.140Z,5.56
2017-05-22T16:06:49.542Z,3.78
2017-05-22T16:09:17.874Z,3.14
2017-05-22T16:11:46.388Z,2.62
2017-05-22T16:14:16.056Z,2.80
2017-05-22T16:16:46.570Z,3.54
2017-05-22T16:19:15.264Z,4.54
2017-05-22T16:21:43.561Z,3.46
2017-05-22T16:24:11.848Z,3.24
2017-05-22T16:26:40.198Z,4.98
2017-05-22T16:29:08.483Z,8.38
2017-05-22T16:31:37.074Z,5.98
2017-05-22T16:34:05.408Z,2.88
2017-05-22T16:36:33.709Z,4.14
2017-05-22T16:39:02.318Z,4.06
2017-05-22T16:41:30.602Z,9.96
2017-05-22T16:43:58.939Z,7.70
2017-05-22T16:46:27.230Z,2.42
2017-05-22T16:48:55.528Z,2.04
2017-05-22T16:51:23.861Z,2.86
2017-05-22T16:53:52.487Z,2.50
2017-05-22T16:56:21.411Z,6.78
2017-05-22T16:58:49.735Z,2.50
2017-05-22T17:01:18.232Z,2.64
2017-05-22T17:03:46.827Z,3.50
2017-05-22T17:06:15.114Z,2.36
2017-05-22T17:08:43.495Z,2.40
2017-05-22T17:11:11.821Z,2.80
2017-05-22T17:13:40.117Z,2.46
2017-05-22T17:16:08.467Z,5.32
2017-05-22T17:18:36.770Z,4.08
2017-05-22T17:21:05.065Z,4.04
2017-05-22T17:23:33.653Z,11.76
2017-05-22T17:26:02.180Z,3.12
2017-05-22T17:28:30.475Z,5.66
2017-05-22T17:30:58.812Z,3.66
2017-05-22T17:33:27.105Z,3.98
2017-05-22T17:35:55.417Z,5.00
2017-05-22T17:38:23.744Z,5.80
2017-05-22T17:40:52.089Z,3.14
2017-05-22T17:43:20.417Z,2.98
2017-05-22T17:45:48.864Z,2.48
2017-05-22T17:48:17.330Z,3.40
2017-05-22T17:50:46.058Z,3.24
2017-05-22T17:53:14.354Z,4.20
2017-05-22T17:55:42.883Z,4.26
2017-05-22T17:58:11.226Z,4.26
2017-05-22T18:00:39.529Z,2.84
2017-05-22T18:03:08.273Z,3.26
2017-05-22T18:05:36.598Z,6.64
2017-05-22T18:08:04.122Z,2.90
2017-05-22T18:10:32.475Z,11.48
2017-05-22T18:13:00.808Z,4.42
2017-05-22T18:15:29.100Z,3.92
2017-05-22T18:17:57.409Z,3.58
2017-05-22T18:20:25.756Z,3.42
2017-05-22T18:22:54.334Z,7.46
2017-05-22T18:25:22.629Z,3.78
2017-05-22T18:27:50.979Z,8.98
2017-05-22T18:30:19.571Z,4.62
2017-05-22T18:32:47.871Z,4.14
2017-05-22T18:35:16.201Z,4.10
2017-05-22T18:37:44.489Z,4.62
2017-05-22T18:40:13.503Z,4.44
2017-05-22T18:42:43.241Z,4.24
2017-05-22T18:45:14.134Z,4.38
2017-05-22T18:47:43.875Z,4.14
2017-05-22T18:50:13.423Z,5.14
2017-05-22T18:52:42.153Z,4.72
2017-05-22T18:55:10.499Z,7.26
2017-05-22T18:57:38.785Z,5.64
2017-05-22T19:00:07.153Z,4.88
2017-05-22T19:02:35.605Z,6.36
2017-05-22T19:05:05.061Z,5.42
2017-05-22T19:07:33.396Z,5.62
2017-05-22T19:10:02.599Z,5.32
2017-05-22T19:12:30.958Z,5.82
2017-05-22T19:14:59.295Z,5.48
2017-05-22T19:17:27.716Z,5.92
2017-05-22T19:19:56.117Z,6.98
2017-05-22T19:22:24.502Z,5.72
2017-05-22T19:24:52.901Z,8.68
2017-05-22T19:27:21.288Z,9.78
2017-05-22T19:29:49.878Z,4.92
2017-05-22T19:32:18.222Z,6.40
2017-05-22T19:34:46.528Z,9.16
2017-05-22T19:37:14.867Z,5.98
2017-05-22T19:39:43.503Z,5.86
2017-05-22T19:42:11.935Z,6.00
2017-05-22T19:44:40.320Z,6.40
2017-05-22T19:47:08.738Z,7.06
2017-05-22T19:49:37.104Z,6.38
2017-05-22T19:52:05.963Z,7.04
2017-05-22T19:54:34.412Z,6.80
2017-05-22T19:57:03.201Z,8.32
2017-05-22T19:59:31.879Z,7.20
2017-05-22T20:02:00.252Z,6.92
2017-05-22T20:04:28.944Z,5.86
2017-05-22T20:06:57.273Z,9.92
2017-05-22T20:09:25.612Z,6.92
2017-05-22T20:11:54.024Z,7.84
2017-05-22T20:14:22.388Z,6.84
2017-05-22T20:16:51.075Z,8.40
2017-05-22T20:19:19.431Z,8.08
2017-05-22T20:21:47.733Z,12.48
2017-05-22T20:24:16.095Z,12.52
2017-05-22T20:26:44.650Z,8.42
2017-05-22T20:29:12.934Z,6.50
2017-05-22T20:31:41.284Z,9.32
2017-05-22T20:34:09.566Z,8.50
2017-05-22T20:36:37.867Z,6.82
2017-05-22T20:39:06.191Z,5.92
2017-05-22T20:41:34.530Z,6.36
2017-05-22T20:44:02.819Z,6.36
2017-05-22T20:46:31.124Z,7.90
2017-05-22T20:48:59.460Z,8.02
2017-05-22T20:51:27.761Z,7.32
2017-05-22T20:53:56.284Z,7.88
2017-05-22T20:56:24.900Z,7.30
2017-05-22T20:58:53.199Z,8.56
2017-05-22T21:01:21.483Z,8.48
2017-05-22T21:03:49.831Z,19.82
2017-05-22T21:06:18.125Z,10.98
2017-05-22T21:08:46.412Z,9.20
2017-05-22T21:11:14.750Z,7.00
2017-05-22T21:13:43.046Z,8.54
2017-05-22T21:16:11.395Z,7.16
2017-05-22T21:18:39.707Z,8.24
2017-05-22T21:21:08.009Z,8.50
2017-05-22T21:23:36.309Z,7.76
2017-05-22T21:26:04.648Z,8.46
2017-05-22T21:28:33.211Z,7.68
2017-05-22T21:31:01.539Z,7.92
2017-05-22T21:33:29.823Z,7.26
2017-05-22T21:35:58.121Z,12.52
2017-05-22T21:38:26.456Z,9.64
2017-05-22T21:40:54.751Z,10.36
2017-05-22T21:43:23.045Z,10.98
2017-05-22T21:45:51.390Z,9.66
2017-05-22T21:48:19.730Z,7.76
2017-05-22T21:50:48.037Z,8.12
2017-05-22T21:53:16.365Z,7.94
2017-05-22T21:55:44.652Z,7.86
2017-05-22T21:58:12.996Z,6.82
2017-05-22T22:00:41.292Z,7.92
2017-05-22T22:03:09.595Z,10.20
2017-05-22T22:05:37.919Z,9.98
2017-05-22T22:08:06.213Z,8.46
2017-05-22T22:10:34.498Z,8.26
2017-05-22T22:13:02.827Z,9.02
2017-05-22T22:15:31.109Z,8.50
2017-05-22T22:17:59.409Z,9.18
2017-05-22T22:20:27.730Z,7.56
2017-05-22T22:22:56.014Z,7.78
2017-05-22T22:25:24.604Z,7.64
2017-05-22T22:27:52.945Z,7.74
2017-05-22T22:30:21.569Z,7.10
2017-05-22T22:32:49.844Z,7.28
2017-05-22T22:35:18.170Z,8.62
2017-05-22T22:37:46.446Z,8.32
2017-05-22T22:40:14.733Z,8.68
2017-05-22T22:42:43.060Z,8.66
2017-05-22T22:45:11.635Z,9.36
2017-05-22T22:47:39.920Z,8.94
2017-05-22T22:50:08.247Z,9.06
2017-05-22T22:52:36.551Z,7.56
2017-05-22T22:55:04.845Z,9.66
2017-05-22T22:57:33.192Z,10.90
2017-05-22T23:00:01.480Z,8.90
2017-05-22T23:02:29.778Z,8.80
2017-05-22T23:04:58.132Z,7.38
2017-05-22T23:07:26.424Z,8.64
2017-05-22T23:09:54.721Z,9.18
2017-05-22T23:12:23.048Z,9.18
2017-05-22T23:14:51.346Z,10.44
2017-05-22T23:17:19.636Z,8.38
2017-05-22T23:19:47.979Z,9.28
2017-05-22T23:22:16.266Z,8.34
2017-05-22T23:24:44.615Z,9.30
2017-05-22T23:27:12.965Z,9.22
2017-05-22T23:29:41.262Z,8.90
2017-05-22T23:32:09.571Z,7.84
2017-05-22T23:34:37.904Z,9.68
2017-05-22T23:37:06.197Z,8.82
2017-05-22T23:39:34.489Z,9.74
2017-05-22T23:42:02.811Z,9.80
2017-05-22T23:44:31.100Z,10.14
2017-05-22T23:46:59.383Z,7.52
2017-05-22T23:49:27.707Z,9.34
2017-05-22T23:51:55.991Z,9.00
2017-05-22T23:54:24.283Z,8.28
2017-05-22T23:56:52.620Z,9.36
2017-05-22T23:59:20.906Z,9.20
